createdAt,value
2019-06-07T00:02:18.962Z,41.63
2019-06-07T00:04:48.635Z,44.47
2019-06-07T00:07:21.852Z,42.20
2019-06-07T00:09:49.367Z,44.87
2019-06-07T00:12:21.433Z,39.10
2019-06-07T00:14:49.955Z,43.30
2019-06-07T00:17:20.266Z,43.40
2019-06-07T00:19:50.254Z,48.77
2019-06-07T00:22:32.601Z,45.43
2019-06-07T00:24:51.084Z,46.13
2019-06-07T00:27:22.507Z,45.90
2019-06-07T00:29:51.675Z,46.07
2019-06-07T00:32:21.903Z,46.27
2019-06-07T00:34:51.801Z,45.53
2019-06-07T00:37:25.329Z,47.17
2019-06-07T00:40:12.919Z,49.40
2019-06-07T00:42:24.295Z,49.30
2019-06-07T00:44:54.030Z,50.07
2019-06-07T00:47:25.524Z,47.67
2019-06-07T00:49:54.570Z,39.87
2019-06-07T00:53:11.572Z,52.87
2019-06-07T00:54:55.131Z,46.50
2019-06-07T00:57:24.692Z,49.90
2019-06-07T00:59:54.340Z,56.83
2019-06-07T01:02:28.227Z,55.30
2019-06-07T01:04:54.966Z,53.67
2019-06-07T01:07:24.564Z,54.40
2019-06-07T01:09:54.193Z,54.90
2019-06-07T01:12:24.592Z,58.97
2019-06-07T01:14:54.730Z,54.87
2019-06-07T01:17:41.572Z,54.67
2019-06-07T01:19:58.182Z,57.33
2019-06-07T01:22:29.361Z,52.33
2019-06-07T01:24:58.727Z,62.50
2019-06-07T01:27:28.809Z,61.40
2019-06-07T01:29:58.356Z,59.57
2019-06-07T01:32:31.444Z,54.07
2019-06-07T01:34:58.889Z,53.83
2019-06-07T01:37:30.178Z,63.20
2019-06-07T01:39:59.434Z,54.60
2019-06-07T01:42:30.770Z,58.13
2019-06-07T01:44:59.981Z,59.63
2019-06-07T01:47:32.207Z,65.63
2019-06-07T01:50:00.524Z,57.23
2019-06-07T01:52:29.995Z,53.30
2019-06-07T01:54:59.507Z,58.47
2019-06-07T01:57:44.735Z,57.37
2019-06-07T02:00:00.076Z,56.30
2019-06-07T02:02:31.606Z,64.53
2019-06-07T02:05:01.015Z,58.90
2019-06-07T02:07:33.207Z,57.10
2019-06-07T02:10:01.564Z,69.60
2019-06-07T02:12:40.178Z,60.07
2019-06-07T02:15:02.297Z,58.93
2019-06-07T02:17:33.292Z,55.63
2019-06-07T02:20:03.563Z,56.70
2019-06-07T02:22:33.027Z,54.20
2019-06-07T02:25:35.009Z,57.47
2019-06-07T02:27:33.642Z,57.40
2019-06-07T02:30:35.390Z,63.53
2019-06-07T02:32:37.036Z,66.97
2019-06-07T02:35:06.519Z,74.80
2019-06-07T02:37:37.182Z,63.63
2019-06-07T02:40:08.448Z,63.13
2019-06-07T02:42:42.231Z,54.03
2019-06-07T02:45:10.649Z,54.67
2019-06-07T02:47:40.821Z,59.77
2019-06-07T02:50:13.402Z,55.30
2019-06-07T02:52:42.870Z,62.53
2019-06-07T02:55:12.964Z,61.07
2019-06-07T02:57:43.184Z,55.53
2019-06-07T03:00:42.619Z,61.17
2019-06-07T03:02:46.646Z,67.67
2019-06-07T03:05:16.091Z,71.13
2019-06-07T03:07:47.813Z,66.63
2019-06-07T03:10:17.252Z,61.80
2019-06-07T03:12:48.623Z,58.83
2019-06-07T03:15:32.807Z,57.20
2019-06-07T03:18:11.020Z,55.27
2019-06-07T03:20:42.023Z,53.17
2019-06-07T03:23:12.152Z,55.43
2019-06-07T03:25:42.339Z,60.00
2019-06-07T03:28:11.810Z,58.33
2019-06-07T03:31:00.397Z,63.07
2019-06-07T03:33:12.367Z,59.53
2019-06-07T03:35:41.826Z,69.33
2019-06-07T03:38:11.298Z,64.87
2019-06-07T03:40:40.853Z,66.07
2019-06-07T03:43:10.311Z,60.10
2019-06-07T03:45:41.519Z,64.60
2019-06-07T03:48:10.934Z,61.33
2019-06-07T03:50:42.408Z,59.57
2019-06-07T03:53:11.672Z,52.33
2019-06-07T03:55:47.122Z,55.70
2019-06-07T03:58:37.797Z,58.90
2019-06-07T04:00:47.706Z,57.40
2019-06-07T04:03:32.918Z,58.67
2019-06-07T04:05:48.529Z,53.77
2019-06-07T04:08:18.229Z,62.03
2019-06-07T04:10:59.224Z,65.20
2019-06-07T04:13:18.837Z,58.17
2019-06-07T04:15:48.507Z,59.47
2019-06-07T04:18:18.193Z,59.43
2019-06-07T04:20:47.673Z,54.70
2019-06-07T04:23:27.708Z,52.70
2019-06-07T04:25:48.251Z,52.60
2019-06-07T04:28:17.722Z,52.37
2019-06-07T04:30:47.251Z,48.93
2019-06-07T04:33:16.900Z,50.67
2019-06-07T04:35:46.349Z,50.17
2019-06-07T04:38:15.970Z,55.77
2019-06-07T04:40:47.065Z,51.53
2019-06-07T04:43:16.766Z,57.17
2019-06-07T04:45:51.209Z,51.83
2019-06-07T04:48:21.573Z,52.97
2019-06-07T04:50:52.519Z,49.23
2019-06-07T04:53:21.934Z,48.20
2019-06-07T04:55:51.397Z,47.77
2019-06-07T04:58:20.871Z,46.17
2019-06-07T05:00:56.406Z,48.93
2019-06-07T05:03:21.483Z,52.10
2019-06-07T05:05:50.941Z,42.00
2019-06-07T05:08:28.083Z,44.83
2019-06-07T05:10:51.489Z,43.90
2019-06-07T05:13:20.973Z,41.37
2019-06-07T05:15:50.452Z,39.93
2019-06-07T05:18:19.894Z,48.73
2019-06-07T05:20:49.417Z,34.77
2019-06-07T05:23:59.831Z,39.20
2019-06-07T05:25:49.897Z,32.87
2019-06-07T05:28:19.397Z,35.07
2019-06-07T05:31:03.782Z,31.80
2019-06-07T05:33:20.003Z,34.83
2019-06-07T05:35:49.552Z,31.60
2019-06-07T05:38:19.002Z,37.53
2019-06-07T05:40:49.103Z,28.63
2019-06-07T05:43:26.631Z,32.13
2019-06-07T05:45:56.109Z,22.13
2019-06-07T05:48:26.866Z,18.70
2019-06-07T05:50:57.594Z,22.43
2019-06-07T05:53:27.435Z,20.43
2019-06-07T05:55:56.895Z,26.13
2019-06-07T05:58:26.350Z,18.47
2019-06-07T06:00:55.809Z,20.97
2019-06-07T06:03:25.280Z,20.07
2019-06-07T06:05:55.645Z,18.03
2019-06-07T06:08:26.850Z,18.53
2019-06-07T06:10:56.313Z,18.73
2019-06-07T06:13:25.771Z,18.70
2019-06-07T06:16:01.727Z,19.57
2019-06-07T06:18:26.325Z,20.97
2019-06-07T06:21:15.253Z,19.43
2019-06-07T06:23:26.878Z,18.23
2019-06-07T06:25:57.886Z,19.00
2019-06-07T06:28:27.532Z,19.00
2019-06-07T06:30:57.005Z,21.53
2019-06-07T06:33:34.101Z,19.67
2019-06-07T06:35:57.527Z,19.67
2019-06-07T06:38:26.980Z,18.37
2019-06-07T06:41:14.726Z,18.50
2019-06-07T06:43:27.522Z,18.93
2019-06-07T06:45:56.989Z,20.70
2019-06-07T06:48:26.460Z,20.10
2019-06-07T06:50:55.929Z,19.70
2019-06-07T06:53:25.389Z,21.53
2019-06-07T06:55:54.870Z,20.33
2019-06-07T06:58:24.314Z,22.83
2019-06-07T07:01:05.905Z,18.50
2019-06-07T07:04:11.429Z,19.70
2019-06-07T07:05:56.516Z,23.57
2019-06-07T07:08:26.019Z,22.43
2019-06-07T07:10:55.504Z,19.87
2019-06-07T07:13:25.161Z,17.83
2019-06-07T07:15:57.927Z,18.30
2019-06-07T07:18:26.731Z,20.07
2019-06-07T07:20:57.556Z,21.25
2019-06-07T07:23:27.261Z,19.70
2019-06-07T07:25:59.395Z,19.30
2019-06-07T07:28:27.827Z,16.33
2019-06-07T07:30:57.568Z,17.57
2019-06-07T07:34:19.952Z,22.35
2019-06-07T07:36:35.276Z,19.30
2019-06-07T07:38:29.254Z,16.27
2019-06-07T07:41:13.974Z,16.23
2019-06-07T07:43:29.860Z,18.83
2019-06-07T07:46:03.321Z,15.90
2019-06-07T07:48:30.656Z,15.65
2019-06-07T07:51:02.914Z,12.88
2019-06-07T07:53:47.773Z,14.38
2019-06-07T07:56:02.540Z,13.18
2019-06-07T07:58:32.385Z,14.75
2019-06-07T08:01:10.310Z,13.62
2019-06-07T08:03:33.033Z,14.28
2019-06-07T08:06:02.495Z,11.18
2019-06-07T08:08:31.950Z,15.93
2019-06-07T08:11:02.382Z,14.13
2019-06-07T08:13:32.129Z,12.90
2019-06-07T08:16:10.008Z,14.23
2019-06-07T08:18:32.685Z,14.58
2019-06-07T08:21:21.514Z,12.03
2019-06-07T08:23:33.265Z,9.95
2019-06-07T08:26:02.745Z,14.58
2019-06-07T08:28:33.275Z,10.98
2019-06-07T08:31:06.864Z,11.68
2019-06-07T08:33:33.820Z,12.95
2019-06-07T08:36:11.869Z,10.30
2019-06-07T08:38:47.563Z,11.78
2019-06-07T08:41:12.126Z,13.18
2019-06-07T08:43:36.610Z,15.13
2019-06-07T08:46:07.810Z,13.78
2019-06-07T08:48:37.226Z,12.95
2019-06-07T08:51:08.531Z,12.00
2019-06-07T08:53:37.985Z,11.90
2019-06-07T08:56:10.869Z,16.42
2019-06-07T08:58:38.614Z,13.15
2019-06-07T09:01:09.211Z,12.75
2019-06-07T09:03:39.012Z,16.93
2019-06-07T09:06:54.052Z,10.40
2019-06-07T09:08:39.883Z,15.50
2019-06-07T09:11:11.116Z,11.97
2019-06-07T09:13:41.591Z,9.53
2019-06-07T09:16:11.053Z,9.30
2019-06-07T09:18:43.683Z,12.28
2019-06-07T09:21:11.619Z,9.23
2019-06-07T09:23:41.073Z,8.08
2019-06-07T09:26:18.432Z,8.18
2019-06-07T09:28:42.409Z,8.58
2019-06-07T09:31:12.632Z,8.03
2019-06-07T09:33:42.527Z,9.73
2019-06-07T09:36:13.107Z,15.15
2019-06-07T09:38:44.284Z,4.95
2019-06-07T09:41:13.726Z,7.37
2019-06-07T09:46:16.300Z,6.45
2019-06-07T09:49:10.519Z,6.62
2019-06-07T09:51:19.957Z,5.85
2019-06-07T09:53:47.617Z,5.80
2019-06-07T09:56:17.046Z,5.03
2019-06-07T09:58:52.476Z,6.47
2019-06-07T10:01:17.595Z,7.72
2019-06-07T10:03:48.024Z,6.83
2019-06-07T10:06:17.480Z,5.35
2019-06-07T10:11:18.085Z,5.33
2019-06-07T10:13:47.566Z,4.40
2019-06-07T10:16:17.000Z,8.15
2019-06-07T10:18:46.453Z,5.75
2019-06-07T10:21:15.898Z,5.62
2019-06-07T10:23:45.355Z,6.95
2019-06-07T10:26:14.803Z,5.67
2019-06-07T10:28:44.268Z,3.62
2019-06-07T10:31:13.721Z,5.30
2019-06-07T10:33:43.196Z,5.60
2019-06-07T10:36:12.634Z,4.42
2019-06-07T10:38:42.101Z,5.42
2019-06-07T10:41:11.549Z,4.03
2019-06-07T10:43:41.026Z,5.50
2019-06-07T10:46:11.889Z,5.03
2019-06-07T10:48:41.531Z,4.50
2019-06-07T10:51:14.618Z,5.67
2019-06-07T10:53:43.173Z,4.58
2019-06-07T10:56:13.720Z,5.25
2019-06-07T10:58:43.195Z,3.85
2019-06-07T11:01:14.299Z,5.10
2019-06-07T11:03:43.761Z,3.72
2019-06-07T11:06:14.266Z,5.62
2019-06-07T11:08:43.955Z,4.40
2019-06-07T11:11:14.388Z,6.97
2019-06-07T11:13:43.959Z,5.87
2019-06-07T11:16:13.401Z,5.05
2019-06-07T11:18:42.865Z,4.55
2019-06-07T11:21:12.321Z,5.30
2019-06-07T11:23:41.792Z,5.25
2019-06-07T11:26:12.539Z,4.70
2019-06-07T11:28:42.073Z,4.60
2019-06-07T11:31:13.224Z,4.37
2019-06-07T11:33:43.031Z,6.12
2019-06-07T11:36:12.927Z,3.98
2019-06-07T11:38:42.423Z,6.28
2019-06-07T11:41:11.869Z,4.30
2019-06-07T11:43:41.332Z,5.03
2019-06-07T11:46:11.001Z,5.00
2019-06-07T11:48:40.454Z,4.22
2019-06-07T11:51:10.808Z,3.95
2019-06-07T11:53:40.369Z,10.10
2019-06-07T11:56:10.315Z,9.10
2019-06-07T11:58:39.923Z,4.67
2019-06-07T12:01:09.650Z,6.10
2019-06-07T12:03:39.326Z,4.80
2019-06-07T12:06:09.999Z,3.80
2019-06-07T12:08:39.487Z,3.35
2019-06-07T12:11:10.026Z,5.45
2019-06-07T12:13:39.688Z,5.03
2019-06-07T12:16:09.214Z,4.40
2019-06-07T12:18:38.713Z,3.62
2019-06-07T12:21:09.410Z,5.97
2019-06-07T12:23:39.101Z,3.30
2019-06-07T12:26:08.541Z,5.92
2019-06-07T12:28:38.003Z,4.30
2019-06-07T12:31:07.455Z,4.17
2019-06-07T12:33:36.918Z,3.25
2019-06-07T12:36:06.358Z,4.28
2019-06-07T12:38:35.826Z,3.33
2019-06-07T12:41:05.349Z,3.20
2019-06-07T12:43:34.805Z,4.53
2019-06-07T12:46:05.105Z,3.85
2019-06-07T12:48:34.570Z,4.53
2019-06-07T12:51:04.376Z,3.58
2019-06-07T12:53:33.846Z,4.20
2019-06-07T12:56:03.295Z,3.50
2019-06-07T12:58:36.226Z,7.03
2019-06-07T13:01:03.857Z,4.47
2019-06-07T13:03:33.359Z,5.85
2019-06-07T13:06:02.844Z,4.62
2019-06-07T13:08:32.386Z,5.50
2019-06-07T13:11:14.761Z,4.42
2019-06-07T13:13:32.919Z,2.75
2019-06-07T13:16:02.405Z,3.60
2019-06-07T13:18:31.843Z,3.50
2019-06-07T13:21:01.313Z,5.58
2019-06-07T13:23:30.762Z,4.37
2019-06-07T13:26:00.230Z,2.95
2019-06-07T13:28:29.689Z,3.60
2019-06-07T13:30:59.157Z,2.87
2019-06-07T13:33:35.472Z,5.25
2019-06-07T13:35:59.685Z,4.10
2019-06-07T13:38:29.360Z,5.55
2019-06-07T13:40:58.776Z,6.62
2019-06-07T13:43:28.339Z,5.65
2019-06-07T13:45:57.810Z,3.10
2019-06-07T13:48:28.317Z,6.37
2019-06-07T13:50:58.613Z,6.28
2019-06-07T13:53:29.050Z,6.80
2019-06-07T13:55:58.675Z,6.05
2019-06-07T13:58:28.687Z,3.92
2019-06-07T14:00:58.288Z,4.33
2019-06-07T14:03:32.877Z,5.67
2019-06-07T14:05:58.811Z,7.25
2019-06-07T14:08:29.750Z,6.05
2019-06-07T14:10:59.322Z,3.90
2019-06-07T14:13:29.954Z,3.33
2019-06-07T14:15:59.754Z,5.45
2019-06-07T14:18:30.476Z,3.22
2019-06-07T14:21:00.067Z,3.98
2019-06-07T14:23:45.783Z,5.78
2019-06-07T14:26:00.606Z,5.25
2019-06-07T14:28:32.259Z,4.80
2019-06-07T14:31:01.143Z,4.33
2019-06-07T14:33:31.897Z,6.65
2019-06-07T14:36:01.716Z,5.28
2019-06-07T14:38:34.006Z,4.67
2019-06-07T14:41:02.226Z,4.75
2019-06-07T14:43:31.860Z,3.70
2019-06-07T14:46:01.422Z,3.40
2019-06-07T14:48:30.869Z,4.28
2019-06-07T14:51:00.354Z,6.17
2019-06-07T14:53:30.839Z,3.05
2019-06-07T14:56:00.453Z,3.20
2019-06-07T14:58:29.907Z,3.52
2019-06-07T15:00:59.374Z,2.87
2019-06-07T15:03:28.838Z,2.95
2019-06-07T15:05:58.289Z,5.08
2019-06-07T15:08:28.449Z,4.45
2019-06-07T15:10:57.998Z,5.35
2019-06-07T15:13:27.640Z,3.77
2019-06-07T15:15:57.512Z,3.67
2019-06-07T15:18:27.606Z,7.58
2019-06-07T15:20:57.128Z,4.55
2019-06-07T15:23:27.022Z,4.60
2019-06-07T15:25:56.617Z,4.80
2019-06-07T15:28:27.513Z,3.40
2019-06-07T15:30:57.141Z,2.70
2019-06-07T15:33:27.914Z,2.42
2019-06-07T15:35:57.397Z,3.45
2019-06-07T15:38:26.840Z,5.28
2019-06-07T15:40:56.310Z,4.50
2019-06-07T15:43:25.753Z,4.85
2019-06-07T15:45:55.380Z,4.53
2019-06-07T15:48:24.832Z,4.90
2019-06-07T15:50:54.277Z,5.70
2019-06-07T15:53:36.419Z,5.95
2019-06-07T15:56:03.651Z,3.80
2019-06-07T15:58:33.177Z,4.55
2019-06-07T16:01:03.132Z,3.37
2019-06-07T16:03:33.749Z,4.70
2019-06-07T16:06:03.252Z,8.23
2019-06-07T16:08:34.219Z,5.47
2019-06-07T16:11:03.697Z,3.70
2019-06-07T16:13:33.159Z,3.42
2019-06-07T16:16:02.635Z,3.55
2019-06-07T16:18:33.194Z,3.77
2019-06-07T16:21:02.719Z,4.80
2019-06-07T16:23:33.600Z,8.85
2019-06-07T16:26:03.105Z,5.15
2019-06-07T16:28:32.565Z,3.90
2019-06-07T16:31:02.009Z,4.80
2019-06-07T16:33:31.473Z,4.15
2019-06-07T16:36:00.937Z,5.45
2019-06-07T16:38:30.426Z,4.92
2019-06-07T16:40:59.874Z,5.03
2019-06-07T16:43:29.342Z,7.58
2019-06-07T16:45:58.785Z,5.95
2019-06-07T16:48:28.249Z,5.37
2019-06-07T16:50:57.697Z,5.70
2019-06-07T16:53:27.161Z,7.47
2019-06-07T16:55:56.606Z,6.78
2019-06-07T16:58:26.074Z,7.65
2019-06-07T17:00:55.627Z,5.05
2019-06-07T17:03:25.053Z,5.55
2019-06-07T17:05:54.516Z,4.75
2019-06-07T17:08:23.976Z,4.10
2019-06-07T17:10:53.431Z,5.78
2019-06-07T17:13:33.115Z,4.50
2019-06-07T17:15:53.979Z,4.47
2019-06-07T17:18:23.453Z,5.33
2019-06-07T17:20:52.903Z,3.62
2019-06-07T17:23:23.445Z,8.95
2019-06-07T17:25:52.910Z,17.25
2019-06-07T17:28:22.457Z,14.63
2019-06-07T17:30:51.910Z,4.20
2019-06-07T17:33:21.401Z,6.87
2019-06-07T17:35:50.873Z,13.40
2019-06-07T17:38:20.347Z,5.00
2019-06-07T17:40:51.104Z,4.10
2019-06-07T17:43:20.672Z,4.60
2019-06-07T17:45:51.471Z,6.70
2019-06-07T17:48:23.879Z,5.17
2019-06-07T17:50:52.868Z,5.22
2019-06-07T17:53:22.472Z,6.37
2019-06-07T17:56:14.101Z,6.62
2019-06-07T17:58:46.393Z,6.25
2019-06-07T18:01:16.913Z,5.90
2019-06-07T18:03:47.068Z,6.70
2019-06-07T18:06:17.709Z,7.10
2019-06-07T18:08:47.630Z,9.33
2019-06-07T18:11:18.234Z,8.38
2019-06-07T18:13:48.220Z,5.20
2019-06-07T18:16:17.998Z,5.47
2019-06-07T18:18:48.556Z,5.92
2019-06-07T18:21:18.015Z,5.58
2019-06-07T18:23:48.286Z,6.53
2019-06-07T18:26:17.735Z,9.00
2019-06-07T18:28:48.389Z,8.63
2019-06-07T18:31:17.934Z,6.42
2019-06-07T18:33:48.698Z,7.65
2019-06-07T18:36:18.469Z,7.35
2019-06-07T18:38:48.967Z,8.00
2019-06-07T18:41:18.546Z,11.15
2019-06-07T18:43:49.161Z,8.33
2019-06-07T18:46:18.777Z,63.42
2019-06-07T18:48:48.397Z,10.15
2019-06-07T18:51:17.945Z,5.97
2019-06-07T18:53:47.582Z,4.97
2019-06-07T18:56:19.773Z,8.70
2019-06-07T18:58:49.263Z,8.23
2019-06-07T19:01:19.243Z,8.10
2019-06-07T19:03:50.185Z,4.37
2019-06-07T19:06:19.953Z,4.70
2019-06-07T19:08:54.768Z,6.77
2019-06-07T19:11:21.547Z,11.80
2019-06-07T19:13:51.020Z,8.30
2019-06-07T19:16:20.464Z,11.97
2019-06-07T19:18:50.005Z,10.45
2019-06-07T19:21:19.465Z,13.20
2019-06-07T19:23:50.015Z,10.97
2019-06-07T19:26:19.527Z,9.80
2019-06-07T19:28:50.600Z,8.37
2019-06-07T19:31:20.122Z,7.53
2019-06-07T19:33:50.909Z,5.03
2019-06-07T19:36:20.457Z,8.20
2019-06-07T19:38:49.928Z,6.57
2019-06-07T19:41:20.076Z,3.27
2019-06-07T19:43:49.577Z,3.70
2019-06-07T19:46:19.046Z,3.37
2019-06-07T19:48:48.554Z,2.90
2019-06-07T19:51:20.380Z,4.63
2019-06-07T19:53:50.082Z,6.87
2019-06-07T19:56:21.478Z,4.80
2019-06-07T19:58:50.978Z,4.93
2019-06-07T20:01:20.448Z,3.50
2019-06-07T20:03:49.911Z,5.23
2019-06-07T20:06:19.387Z,7.10
2019-06-07T20:08:48.837Z,3.57
2019-06-07T20:11:18.305Z,4.53
2019-06-07T20:13:47.773Z,3.30
2019-06-07T20:16:17.229Z,4.43
2019-06-07T20:18:46.693Z,3.03
2019-06-07T20:21:16.170Z,3.23
2019-06-07T20:23:45.621Z,7.83
2019-06-07T20:26:15.092Z,3.17
2019-06-07T20:28:44.557Z,4.10
2019-06-07T20:31:14.030Z,4.47
2019-06-07T20:33:44.038Z,1.43
2019-06-07T20:36:13.522Z,4.17
2019-06-07T20:38:42.999Z,6.53
2019-06-07T20:41:12.461Z,1.47
2019-06-07T20:43:41.911Z,2.07
2019-06-07T20:46:11.470Z,3.90
2019-06-07T20:48:40.926Z,4.40
2019-06-07T20:51:10.409Z,1.90
2019-06-07T20:53:39.871Z,3.27
2019-06-07T20:56:09.421Z,4.67
2019-06-07T20:58:38.869Z,3.07
2019-06-07T21:01:09.002Z,4.73
2019-06-07T21:03:38.582Z,7.13
2019-06-07T21:06:08.061Z,4.10
2019-06-07T21:08:37.554Z,6.07
2019-06-07T21:11:08.099Z,5.13
2019-06-07T21:13:37.541Z,2.60
2019-06-07T21:16:08.224Z,1.57
2019-06-07T21:18:37.764Z,6.03
2019-06-07T21:21:08.471Z,2.50
2019-06-07T21:23:38.082Z,1.43
2019-06-07T21:26:09.031Z,1.63
2019-06-07T21:28:39.872Z,2.33
2019-06-07T21:31:10.559Z,1.67
2019-06-07T21:33:39.991Z,3.80
2019-06-07T21:36:09.814Z,1.67
2019-06-07T21:38:39.287Z,1.80
2019-06-07T21:41:08.786Z,1.50
2019-06-07T21:43:38.881Z,2.40
2019-06-07T21:46:13.141Z,3.20
2019-06-07T21:48:39.446Z,3.57
2019-06-07T21:51:08.926Z,3.90
2019-06-07T21:53:39.647Z,1.70
2019-06-07T21:56:11.263Z,2.70
2019-06-07T21:58:40.920Z,4.77
2019-06-07T22:01:14.396Z,1.67
2019-06-07T22:03:45.053Z,1.07
2019-06-07T22:06:14.565Z,4.20
2019-06-07T22:08:44.019Z,0.97
2019-06-07T22:11:14.527Z,3.93
2019-06-07T22:13:43.982Z,2.90
2019-06-07T22:16:26.779Z,1.70
2019-06-07T22:18:44.528Z,3.00
2019-06-07T22:21:14.793Z,1.03
2019-06-07T22:23:44.248Z,1.63
2019-06-07T22:26:13.704Z,2.50
2019-06-07T22:28:43.146Z,1.57
2019-06-07T22:31:12.847Z,3.17
2019-06-07T22:33:42.349Z,2.53
2019-06-07T22:36:13.117Z,1.23
2019-06-07T22:38:42.766Z,2.17
2019-06-07T22:41:12.671Z,2.53
2019-06-07T22:43:43.289Z,1.97
2019-06-07T22:46:13.021Z,2.17
2019-06-07T22:48:42.689Z,5.23
2019-06-07T22:51:13.338Z,5.67
2019-06-07T22:53:43.239Z,4.30
2019-06-07T22:56:18.173Z,3.63
2019-06-07T22:58:47.677Z,2.63
2019-06-07T23:01:20.066Z,3.27
2019-06-07T23:03:49.175Z,2.03
2019-06-07T23:06:19.001Z,2.43
2019-06-07T23:08:48.590Z,2.33
2019-06-07T23:11:19.404Z,2.23
2019-06-07T23:13:48.987Z,1.97
2019-06-07T23:16:19.802Z,2.57
2019-06-07T23:18:49.367Z,0.97
2019-06-07T23:21:19.984Z,3.70
2019-06-07T23:23:49.656Z,0.90
2019-06-07T23:26:20.449Z,1.30
2019-06-07T23:28:50.065Z,1.77
2019-06-07T23:31:20.792Z,3.60
2019-06-07T23:33:50.338Z,1.77
2019-06-07T23:36:21.380Z,4.67
2019-06-07T23:38:50.950Z,6.80
2019-06-07T23:41:20.894Z,3.07
2019-06-07T23:43:51.529Z,1.63
2019-06-07T23:46:21.632Z,1.07
2019-06-07T23:48:51.335Z,0.97
2019-06-07T23:51:22.088Z,0.77
2019-06-07T23:53:51.606Z,7.40
2019-06-07T23:56:22.115Z,4.63
2019-06-07T23:58:51.813Z,3.63
